createdAt,value
2023-06-19T00:00:52.106Z,28.30
2023-06-19T00:03:27.187Z,28.20
2023-06-19T00:06:13.866Z,27.60
2023-06-19T00:08:52.705Z,28.30
2023-06-19T00:11:52.425Z,29.77
2023-06-19T00:14:39.925Z,28.33
2023-06-19T00:17:11.888Z,27.17
2023-06-19T00:19:40.288Z,28.57
2023-06-19T00:22:10.010Z,28.03
2023-06-19T00:24:38.278Z,28.80
2023-06-19T00:27:07.463Z,28.97
2023-06-19T00:29:37.032Z,26.90
2023-06-19T00:32:12.864Z,29.10
2023-06-19T00:35:04.536Z,27.33
2023-06-19T00:37:42.181Z,28.17
2023-06-19T00:40:16.280Z,28.23
2023-06-19T00:42:49.949Z,28.30
2023-06-19T00:45:40.166Z,27.90
2023-06-19T00:48:09.283Z,29.03
2023-06-19T00:50:56.255Z,28.27
2023-06-19T00:53:51.120Z,28.40
2023-06-19T00:56:40.907Z,28.87
2023-06-19T00:59:27.189Z,28.27
2023-06-19T01:02:08.177Z,27.70
2023-06-19T01:04:51.420Z,29.20
2023-06-19T01:07:38.685Z,29.00
2023-06-19T01:10:23.826Z,28.07
2023-06-19T01:13:06.454Z,29.47
2023-06-19T01:15:56.304Z,30.37
2023-06-19T01:18:41.260Z,29.10
2023-06-19T01:21:38.323Z,29.83
2023-06-19T01:24:15.598Z,28.60
2023-06-19T01:27:04.282Z,29.80
2023-06-19T01:29:50.836Z,28.93
2023-06-19T01:32:36.845Z,29.43
2023-06-19T01:35:24.378Z,29.43
2023-06-19T01:37:55.563Z,29.40
2023-06-19T01:40:32.676Z,28.97
2023-06-19T01:43:03.231Z,28.70
2023-06-19T01:45:34.186Z,29.83
2023-06-19T01:48:02.585Z,28.97
2023-06-19T01:50:30.818Z,29.90
2023-06-19T01:52:59.443Z,29.73
2023-06-19T01:55:29.110Z,28.90
2023-06-19T01:57:59.585Z,31.20
2023-06-19T02:00:27.859Z,28.80
2023-06-19T02:02:59.955Z,29.50
2023-06-19T02:05:28.225Z,28.70
2023-06-19T02:07:58.562Z,29.00
2023-06-19T02:10:30.296Z,27.17
2023-06-19T02:12:58.545Z,28.23
2023-06-19T02:15:29.646Z,29.83
2023-06-19T02:17:58.179Z,29.40
2023-06-19T02:20:28.466Z,28.40
2023-06-19T02:22:58.412Z,30.27
2023-06-19T02:25:32.082Z,29.47
2023-06-19T02:28:01.389Z,29.53
2023-06-19T02:30:30.346Z,29.60
2023-06-19T02:32:58.755Z,29.43
2023-06-19T02:36:03.102Z,29.37
2023-06-19T02:38:53.364Z,29.20
2023-06-19T02:41:26.037Z,28.77
2023-06-19T02:43:54.184Z,29.50
2023-06-19T02:46:22.583Z,29.17
2023-06-19T02:48:50.881Z,29.87
2023-06-19T02:51:19.058Z,30.37
2023-06-19T02:53:47.227Z,29.87
2023-06-19T02:56:15.479Z,28.87
2023-06-19T02:58:48.301Z,29.20
2023-06-19T03:01:32.343Z,28.43
2023-06-19T03:04:00.705Z,28.63
2023-06-19T03:06:29.278Z,28.50
2023-06-19T03:09:06.019Z,27.27
2023-06-19T03:11:59.143Z,28.13
2023-06-19T03:15:05.507Z,29.57
2023-06-19T03:17:50.984Z,23.80
2023-06-19T03:20:42.658Z,28.27
2023-06-19T03:23:31.794Z,27.60
2023-06-19T03:26:32.325Z,28.23
2023-06-19T03:29:24.812Z,28.57
2023-06-19T03:32:36.412Z,26.60
2023-06-19T03:35:21.503Z,27.17
2023-06-19T03:37:55.797Z,28.47
2023-06-19T03:40:40.228Z,27.07
2023-06-19T03:46:28.978Z,27.67
2023-06-19T03:50:07.784Z,27.73
2023-06-19T03:57:04.150Z,28.00
2023-06-19T03:59:59.337Z,28.57
2023-06-19T04:02:30.877Z,27.77
2023-06-19T04:05:00.485Z,28.90
2023-06-19T04:07:28.890Z,28.10
2023-06-19T04:09:57.053Z,26.90
2023-06-19T04:12:25.615Z,27.47
2023-06-19T04:14:54.746Z,28.10
2023-06-19T04:17:40.027Z,28.43
2023-06-19T04:20:13.490Z,28.63
2023-06-19T04:22:42.330Z,29.37
2023-06-19T04:25:14.627Z,29.63
2023-06-19T04:28:09.439Z,27.90
2023-06-19T04:30:40.584Z,28.10
2023-06-19T04:33:09.885Z,27.90
2023-06-19T04:35:41.458Z,26.70
2023-06-19T04:38:30.372Z,26.77
2023-06-19T04:41:20.294Z,26.40
2023-06-19T04:44:09.885Z,26.63
2023-06-19T04:46:54.114Z,29.27
2023-06-19T04:49:41.034Z,27.70
2023-06-19T04:52:46.572Z,25.93
2023-06-19T04:55:36.073Z,28.37
2023-06-19T05:02:03.044Z,28.20
2023-06-19T05:04:58.526Z,28.00
2023-06-19T05:11:09.539Z,27.80
2023-06-19T05:14:08.882Z,26.10
2023-06-19T05:17:02.765Z,26.40
2023-06-19T05:20:09.626Z,27.23
2023-06-19T05:23:16.390Z,25.50
2023-06-19T05:26:10.388Z,27.33
2023-06-19T05:32:38.642Z,27.67
2023-06-19T05:35:16.573Z,27.77
2023-06-19T05:37:54.654Z,27.97
2023-06-19T05:40:54.015Z,28.67
2023-06-19T05:43:43.465Z,28.13
2023-06-19T05:46:39.311Z,26.83
2023-06-19T05:49:17.325Z,27.27
2023-06-19T05:51:57.556Z,29.33
2023-06-19T05:54:57.790Z,28.23
2023-06-19T05:57:34.775Z,29.17
2023-06-19T06:00:24.692Z,31.17
2023-06-19T06:03:02.856Z,28.20
2023-06-19T06:06:11.428Z,30.10
2023-06-19T06:08:56.729Z,27.50
2023-06-19T06:11:55.560Z,26.83
2023-06-19T06:14:38.275Z,28.23
2023-06-19T06:18:00.534Z,28.53
2023-06-19T06:21:00.192Z,30.37
2023-06-19T06:23:52.217Z,27.83
2023-06-19T06:32:55.804Z,28.63
2023-06-19T06:38:39.987Z,27.17
2023-06-19T06:41:54.415Z,27.53
2023-06-19T06:45:21.819Z,28.07
2023-06-19T06:48:12.474Z,27.77
2023-06-19T06:51:15.709Z,27.70
2023-06-19T06:56:57.236Z,27.43
2023-06-19T06:59:52.473Z,25.87
2023-06-19T07:03:13.377Z,28.07
2023-06-19T07:06:08.531Z,27.33
2023-06-19T07:12:31.104Z,25.93
2023-06-19T07:19:19.114Z,25.50
2023-06-19T07:26:05.677Z,25.10
2023-06-19T07:29:27.536Z,25.47
2023-06-19T07:32:28.690Z,25.50
2023-06-19T07:35:57.083Z,24.43
2023-06-19T07:39:16.015Z,25.10
2023-06-19T07:42:18.668Z,25.20
2023-06-19T07:45:24.485Z,25.57
2023-06-19T07:48:26.557Z,25.00
2023-06-19T07:51:25.982Z,24.40
2023-06-19T07:54:25.792Z,24.77
2023-06-19T08:00:49.558Z,24.50
2023-06-19T08:07:07.654Z,24.57
2023-06-19T08:10:14.674Z,25.13
2023-06-19T08:13:23.568Z,24.37
2023-06-19T08:15:52.136Z,25.27
2023-06-19T08:18:25.653Z,24.00
2023-06-19T08:21:25.634Z,25.60
2023-06-19T08:24:37.758Z,24.00
2023-06-19T08:30:22.186Z,25.00
2023-06-19T08:33:08.124Z,25.23
2023-06-19T08:35:48.567Z,25.90
2023-06-19T08:38:37.402Z,25.23
2023-06-19T08:45:26.494Z,25.77
2023-06-19T08:48:18.511Z,25.03
2023-06-19T08:51:19.536Z,29.60
2023-06-19T08:54:27.158Z,25.80
2023-06-19T08:57:27.544Z,25.23
2023-06-19T09:00:23.803Z,24.03
2023-06-19T09:03:45.881Z,25.70
2023-06-19T09:06:47.193Z,24.10
2023-06-19T09:10:06.582Z,25.53
2023-06-19T09:12:53.234Z,25.30
2023-06-19T09:15:36.392Z,26.27
2023-06-19T09:25:20.616Z,25.87
2023-06-19T09:26:44.831Z,26.37
2023-06-19T10:14:21.588Z,26.17
2023-06-19T10:17:27.283Z,25.43
2023-06-19T10:20:24.201Z,24.43
2023-06-19T10:23:20.090Z,26.67
2023-06-19T10:26:08.896Z,25.00
2023-06-19T10:29:14.112Z,26.60
2023-06-19T10:32:17.190Z,29.93
2023-06-19T10:35:11.620Z,26.57
2023-06-19T10:38:53.299Z,26.60
2023-06-19T10:41:37.459Z,26.00
2023-06-19T10:51:16.156Z,26.17
2023-06-19T11:03:58.518Z,26.60
2023-06-19T11:14:23.539Z,26.07
2023-06-19T11:17:00.546Z,26.03
2023-06-19T11:31:44.686Z,26.53
2023-06-19T11:54:46.960Z,25.70
2023-06-19T12:10:20.752Z,25.20
2023-06-19T12:23:02.227Z,25.50
2023-06-19T12:34:00.221Z,25.93
2023-06-19T12:37:02.724Z,25.50
2023-06-19T12:39:48.737Z,25.17
2023-06-19T12:42:51.797Z,24.10
2023-06-19T13:07:13.217Z,23.50
2023-06-19T13:09:59.577Z,25.77
2023-06-19T13:12:31.457Z,24.50
2023-06-19T13:15:07.974Z,24.03
2023-06-19T13:17:55.306Z,25.10
2023-06-19T13:24:20.250Z,23.93
2023-06-19T13:28:28.067Z,23.27
2023-06-19T13:31:16.893Z,26.03
2023-06-19T13:37:43.475Z,24.97
2023-06-19T13:40:54.985Z,24.70
2023-06-19T13:43:36.659Z,23.80
2023-06-19T13:46:18.686Z,27.17
2023-06-19T13:48:56.310Z,26.30
2023-06-19T13:51:34.152Z,25.10
2023-06-19T13:54:09.953Z,25.17
2023-06-19T13:56:50.428Z,25.80
2023-06-19T13:59:23.922Z,27.97
2023-06-19T14:01:52.739Z,26.60
2023-06-19T14:08:02.267Z,27.90
2023-06-19T14:08:19.069Z,27.10
2023-06-19T14:19:05.990Z,27.87
2023-06-19T14:29:19.184Z,26.30
2023-06-19T14:55:38.645Z,27.20
2023-06-19T14:58:42.774Z,25.47
2023-06-19T15:01:59.223Z,29.77
2023-06-19T15:05:55.501Z,27.97
2023-06-19T15:12:06.925Z,28.40
2023-06-19T15:19:18.099Z,27.10
2023-06-19T15:22:25.054Z,29.10
2023-06-19T15:25:08.674Z,28.10
2023-06-19T15:28:01.243Z,30.30
2023-06-19T15:30:39.140Z,27.63
2023-06-19T15:37:17.212Z,27.93
2023-06-19T15:40:20.274Z,29.10
2023-06-19T15:43:52.586Z,27.93
2023-06-19T15:46:52.767Z,28.90
2023-06-19T15:49:34.228Z,28.20
2023-06-19T15:55:35.154Z,29.27
2023-06-19T15:58:23.746Z,28.17
2023-06-19T16:01:19.237Z,28.80
2023-06-19T16:04:03.194Z,27.20
2023-06-19T16:06:41.321Z,27.57
2023-06-19T16:09:55.141Z,26.77
2023-06-19T16:12:42.414Z,27.93
2023-06-19T16:15:32.900Z,27.07
2023-06-19T16:21:06.416Z,27.73
2023-06-19T16:27:22.437Z,25.57
2023-06-19T16:30:00.335Z,26.37
2023-06-19T16:32:45.836Z,26.93
2023-06-19T16:35:53.439Z,27.57
2023-06-19T16:42:24.076Z,25.33
2023-06-19T16:44:58.627Z,26.40
2023-06-19T16:47:28.479Z,24.53
2023-06-19T16:50:01.388Z,25.20
2023-06-19T17:05:26.029Z,24.53
2023-06-19T17:07:59.651Z,24.90
2023-06-19T17:10:35.219Z,26.03
2023-06-19T17:13:09.039Z,25.73
2023-06-19T17:15:46.189Z,25.87
2023-06-19T17:21:21.971Z,26.10
2023-06-19T17:23:52.761Z,25.23
2023-06-19T17:26:33.963Z,23.87
2023-06-19T17:29:17.020Z,24.90
2023-06-19T17:31:50.182Z,26.10
2023-06-19T17:34:50.120Z,27.33
2023-06-19T17:37:19.792Z,25.47
2023-06-19T17:40:59.497Z,26.10
2023-06-19T17:43:32.191Z,25.80
2023-06-19T17:50:22.420Z,26.13
2023-06-19T17:52:52.992Z,26.17
2023-06-19T17:55:21.743Z,27.20
2023-06-19T17:57:52.072Z,26.47
2023-06-19T18:00:39.101Z,26.33
2023-06-19T18:03:32.231Z,26.47
2023-06-19T18:06:07.861Z,27.40
2023-06-19T18:08:49.038Z,27.00
2023-06-19T18:11:41.690Z,27.73
2023-06-19T18:17:38.268Z,29.43
2023-06-19T18:20:39.708Z,28.60
2023-06-19T18:27:12.380Z,27.93
2023-06-19T18:30:12.443Z,27.50
2023-06-19T18:33:11.069Z,27.40
2023-06-19T18:35:52.070Z,29.30
2023-06-19T18:38:45.037Z,30.63
2023-06-19T18:41:42.260Z,31.27
2023-06-19T18:44:29.487Z,32.40
2023-06-19T18:47:12.159Z,32.90
2023-06-19T18:50:07.303Z,33.30
2023-06-19T18:53:23.472Z,34.50
2023-06-19T18:56:11.872Z,36.30
2023-06-19T18:59:01.683Z,36.90
2023-06-19T19:01:51.870Z,34.67
2023-06-19T19:04:35.362Z,34.40
2023-06-19T19:07:16.612Z,32.50
2023-06-19T19:09:54.463Z,34.23
2023-06-19T19:12:29.573Z,34.73
2023-06-19T19:15:03.730Z,33.03
2023-06-19T19:17:45.267Z,33.07
2023-06-19T19:20:41.547Z,35.47
2023-06-19T19:23:20.995Z,34.10
2023-06-19T19:25:49.373Z,36.90
2023-06-19T19:28:27.067Z,34.33
2023-06-19T19:30:59.377Z,34.60
2023-06-19T19:33:44.534Z,35.10
2023-06-19T19:36:28.686Z,34.43
2023-06-19T19:39:02.343Z,34.53
2023-06-19T19:41:49.838Z,34.53
2023-06-19T19:44:28.508Z,34.60
2023-06-19T19:47:09.713Z,35.10
2023-06-19T19:49:46.077Z,34.70
2023-06-19T19:52:48.459Z,35.03
2023-06-19T19:55:26.311Z,36.90
2023-06-19T19:57:59.753Z,35.57
2023-06-19T20:00:58.157Z,34.73
2023-06-19T20:03:41.671Z,35.57
2023-06-19T20:06:19.822Z,34.40
2023-06-19T20:08:51.433Z,32.80
2023-06-19T20:11:35.156Z,31.30
2023-06-19T20:14:12.537Z,35.00
2023-06-19T20:16:40.949Z,35.17
2023-06-19T20:19:10.294Z,33.90
2023-06-19T20:21:45.284Z,33.10
2023-06-19T20:24:14.235Z,32.90
2023-06-19T20:26:44.431Z,36.90
2023-06-19T20:29:12.750Z,36.83
2023-06-19T20:31:41.336Z,34.00
2023-06-19T20:34:09.757Z,36.57
2023-06-19T20:36:43.141Z,33.43
2023-06-19T20:39:28.641Z,33.80
2023-06-19T20:42:23.325Z,33.83
2023-06-19T20:45:00.316Z,33.20
2023-06-19T20:47:31.982Z,34.20
2023-06-19T20:50:11.918Z,34.83
2023-06-19T20:52:47.429Z,34.57
2023-06-19T20:58:24.352Z,33.17
2023-06-19T21:01:32.151Z,34.37
2023-06-19T21:04:12.268Z,33.47
2023-06-19T21:07:02.768Z,33.23
2023-06-19T21:12:25.676Z,33.50
2023-06-19T21:15:15.572Z,32.90
2023-06-19T21:18:09.280Z,30.93
2023-06-19T21:20:59.595Z,34.20
2023-06-19T21:23:51.196Z,34.10
2023-06-19T21:32:38.854Z,32.50
2023-06-19T21:35:19.972Z,32.50
2023-06-19T21:37:51.762Z,32.77
2023-06-19T21:40:57.805Z,34.27
2023-06-19T21:46:49.372Z,32.33
2023-06-19T21:50:12.841Z,33.63
2023-06-19T22:06:35.456Z,33.07
2023-06-19T22:12:07.889Z,31.30
2023-06-19T22:18:51.997Z,34.93
2023-06-19T22:21:34.582Z,32.93
2023-06-19T22:24:07.825Z,34.53
2023-06-19T22:27:05.261Z,34.87
2023-06-19T22:29:45.563Z,34.40
2023-06-19T22:32:40.981Z,35.37
2023-06-19T22:35:15.639Z,35.00
2023-06-19T22:38:11.669Z,33.73
2023-06-19T22:44:18.488Z,35.43
2023-06-19T22:47:24.407Z,34.60
2023-06-19T22:50:19.961Z,34.67
2023-06-19T22:53:14.402Z,35.43
2023-06-19T22:56:17.741Z,35.73
2023-06-19T22:58:55.831Z,34.20
2023-06-19T23:01:37.086Z,34.80
2023-06-19T23:04:14.249Z,35.30
2023-06-19T23:06:56.172Z,35.87
2023-06-19T23:12:28.542Z,38.27
2023-06-19T23:15:16.516Z,36.07
2023-06-19T23:18:00.131Z,38.47
2023-06-19T23:20:43.591Z,38.67
2023-06-19T23:23:21.456Z,40.50
2023-06-19T23:25:56.003Z,39.80
2023-06-19T23:29:00.788Z,41.30
2023-06-19T23:31:46.532Z,42.20
2023-06-19T23:37:32.455Z,43.50
2023-06-19T23:40:18.468Z,46.63
2023-06-19T23:43:06.309Z,46.70
2023-06-19T23:45:47.758Z,46.60
2023-06-19T23:48:32.910Z,47.47
2023-06-19T23:54:10.966Z,46.17
